Time;durP1;ratioP1;P1;durP2;ratioP2;P2;SDS_P1;SDS_P2;PMS_P1;PMS_P2;Temp;Humidity;BMP_temperature;BMP_pressure;BME280_temperature;BME280_humidity;BME280_pressure;Samples;Min_cycle;Max_cycle;Signal;HPM_P1;HPM_P2
2024/03/19 00:00:25;;;;;;;10.53;8.87;;;8.20;99.90;;;;;;5047458;28;20201;-61
2024/03/19 00:02:52;;;;;;;8.20;7.40;;;8.20;99.90;;;;;;5061987;28;20281;-61
2024/03/19 00:05:20;;;;;;;8.37;7.63;;;8.20;99.90;;;;;;5059953;28;20199;-61
2024/03/19 00:07:49;;;;;;;11.93;7.60;;;8.10;99.90;;;;;;5059269;28;20241;-61
2024/03/19 00:10:17;;;;;;;7.00;6.40;;;8.00;99.90;;;;;;5062701;28;20203;-61
2024/03/19 00:12:47;;;;;;;7.57;6.73;;;8.10;99.90;;;;;;5053729;28;20205;-62
2024/03/19 00:15:14;;;;;;;8.17;6.67;;;8.10;99.90;;;;;;5055026;28;20257;-61
2024/03/19 00:17:44;;;;;;;6.47;5.87;;;8.00;99.90;;;;;;5055632;28;20225;-61
2024/03/19 00:20:12;;;;;;;6.10;5.60;;;8.00;99.90;;;;;;5051204;28;20203;-61
2024/03/19 00:22:44;;;;;;;5.20;4.90;;;8.00;99.90;;;;;;5057876;28;20201;-61
2024/03/19 00:25:11;;;;;;;5.87;5.23;;;7.90;99.90;;;;;;5053597;28;20260;-62
2024/03/19 00:27:38;;;;;;;5.33;4.93;;;7.80;99.90;;;;;;5061098;28;20259;-61
2024/03/19 00:30:08;;;;;;;6.37;5.77;;;7.90;99.90;;;;;;5052694;28;20618;-61
2024/03/19 00:32:35;;;;;;;6.07;5.57;;;7.90;99.90;;;;;;5055222;28;20205;-62
2024/03/19 00:35:03;;;;;;;6.07;5.47;;;7.80;99.90;;;;;;5053064;28;20262;-62
2024/03/19 00:37:31;;;;;;;5.97;5.47;;;7.90;99.90;;;;;;5057352;28;20550;-61
2024/03/19 00:40:00;;;;;;;6.70;6.10;;;7.80;99.90;;;;;;5063180;28;20556;-61
2024/03/19 00:42:27;;;;;;;6.93;6.23;;;7.90;99.90;;;;;;5060806;28;20200;-61
2024/03/19 00:44:54;;;;;;;7.80;7.10;;;7.90;99.90;;;;;;5054182;28;20217;-61
2024/03/19 00:47:21;;;;;;;8.60;7.80;;;7.90;99.90;;;;;;5047799;28;20292;-61
2024/03/19 00:49:48;;;;;;;11.10;8.30;;;8.00;99.90;;;;;;5061942;28;20246;-61
2024/03/19 00:52:16;;;;;;;9.43;8.53;;;7.90;99.90;;;;;;5065129;28;20200;-61
2024/03/19 00:54:44;;;;;;;10.37;9.17;;;7.90;99.90;;;;;;5061387;28;20225;-61
2024/03/19 00:57:12;;;;;;;9.07;8.27;;;8.00;99.90;;;;;;5053649;28;20654;-61
2024/03/19 00:59:39;;;;;;;10.50;9.33;;;8.00;99.90;;;;;;5056253;28;20223;-62
2024/03/19 01:02:06;;;;;;;11.43;9.10;;;7.90;99.90;;;;;;5056871;28;20203;-61
2024/03/19 01:04:34;;;;;;;8.93;8.03;;;7.90;99.90;;;;;;5060844;28;20313;-61
2024/03/19 01:07:01;;;;;;;10.73;8.27;;;7.90;99.90;;;;;;5060949;28;20234;-61
2024/03/19 01:09:28;;;;;;;7.80;7.07;;;7.90;99.90;;;;;;5053198;28;20291;-61
2024/03/19 01:11:55;;;;;;;8.80;7.90;;;7.90;99.90;;;;;;5058085;28;20287;-61
2024/03/19 01:14:23;;;;;;;7.97;7.17;;;7.90;99.90;;;;;;5062353;28;20758;-62
2024/03/19 01:16:50;;;;;;;6.67;6.07;;;7.90;99.90;;;;;;5061727;28;20207;-61
2024/03/19 01:19:17;;;;;;;5.97;5.47;;;7.90;99.90;;;;;;5058771;28;20224;-61
2024/03/19 01:21:44;;;;;;;5.60;5.17;;;7.90;99.90;;;;;;5059377;28;20691;-61
2024/03/19 01:24:11;;;;;;;6.37;4.63;;;7.90;99.90;;;;;;5045876;28;20223;-61
2024/03/19 01:26:38;;;;;;;4.47;4.17;;;8.00;99.90;;;;;;5062918;28;20203;-62
2024/03/19 01:29:05;;;;;;;3.90;3.60;;;8.00;99.90;;;;;;5058718;28;20589;-62
2024/03/19 01:31:34;;;;;;;4.03;3.73;;;7.90;99.90;;;;;;5063440;28;20206;-61
2024/03/19 01:34:01;;;;;;;4.03;3.73;;;7.90;99.90;;;;;;5055117;28;20224;-61
2024/03/19 01:36:28;;;;;;;5.23;4.73;;;7.90;99.90;;;;;;5056004;28;20242;-61
2024/03/19 01:38:55;;;;;;;4.57;4.23;;;7.90;99.90;;;;;;5059832;28;20260;-61
2024/03/19 01:41:22;;;;;;;4.20;3.83;;;7.90;99.90;;;;;;5055080;28;20200;-61
2024/03/19 01:43:48;;;;;;;5.07;4.27;;;7.90;99.90;;;;;;5059599;28;20220;-61
2024/03/19 01:46:27;;;;;;;3.73;3.20;;;7.80;99.90;;;;;;5062541;28;20737;-61
2024/03/19 01:48:57;;;;;;;3.37;2.83;;;7.90;99.90;;;;;;5060920;28;20218;-61
2024/03/19 01:51:26;;;;;;;2.80;2.60;;;7.80;99.90;;;;;;5052119;28;20200;-62
2024/03/19 01:53:55;;;;;;;3.60;3.30;;;7.80;99.90;;;;;;5059397;28;20708;-61
2024/03/19 01:56:22;;;;;;;3.80;3.33;;;7.80;99.90;;;;;;5062113;28;20287;-61
2024/03/19 01:58:50;;;;;;;5.67;5.17;;;7.80;99.90;;;;;;5062541;28;20643;-61
2024/03/19 02:01:17;;;;;;;9.43;7.97;;;7.80;99.90;;;;;;5054064;28;20798;-62
2024/03/19 02:03:45;;;;;;;10.27;8.53;;;7.80;99.90;;;;;;5053263;28;20232;-61
2024/03/19 02:06:15;;;;;;;12.47;10.17;;;7.80;99.90;;;;;;5047475;28;20200;-61
2024/03/19 02:08:58;;;;;;;12.37;10.50;;;7.80;99.90;;;;;;5059659;28;20191;-61
2024/03/19 02:11:25;;;;;;;10.63;9.53;;;7.80;99.90;;;;;;5061738;28;20653;-61
2024/03/19 02:13:52;;;;;;;11.50;9.90;;;7.80;99.90;;;;;;5054916;28;20302;-61
2024/03/19 02:16:20;;;;;;;14.23;11.57;;;7.80;99.90;;;;;;5061609;28;20228;-61
2024/03/19 02:18:54;;;;;;;12.20;11.00;;;7.80;99.90;;;;;;5055195;28;20220;-62
2024/03/19 02:21:23;;;;;;;12.13;10.87;;;7.70;99.90;;;;;;5056121;28;20203;-61
2024/03/19 02:23:51;;;;;;;13.47;11.50;;;7.80;99.90;;;;;;5056146;28;20290;-62
2024/03/19 02:26:18;;;;;;;17.37;13.27;;;7.80;99.90;;;;;;5061891;28;20200;-61
2024/03/19 02:28:45;;;;;;;16.10;13.17;;;7.80;99.90;;;;;;5049986;28;20735;-61
2024/03/19 02:31:12;;;;;;;14.47;12.07;;;7.80;99.90;;;;;;5039453;28;20205;-61
2024/03/19 02:33:39;;;;;;;16.93;12.47;;;7.70;99.90;;;;;;5058907;28;20707;-61
2024/03/19 02:36:07;;;;;;;13.70;11.87;;;7.80;99.90;;;;;;5057402;28;20208;-61
2024/03/19 02:38:34;;;;;;;16.87;12.03;;;7.80;99.90;;;;;;5058361;28;20221;-61
2024/03/19 02:41:03;;;;;;;13.50;10.27;;;7.70;99.90;;;;;;5060151;28;20675;-61
2024/03/19 02:43:30;;;;;;;13.90;11.23;;;7.70;99.90;;;;;;5058051;28;20385;-62
2024/03/19 02:45:57;;;;;;;13.60;10.97;;;7.70;99.90;;;;;;5059176;28;20204;-61
2024/03/19 02:48:24;;;;;;;12.70;9.63;;;7.70;99.90;;;;;;5059651;28;20258;-61
2024/03/19 02:50:51;;;;;;;10.17;8.73;;;7.60;99.90;;;;;;5059354;28;20227;-61
2024/03/19 02:53:18;;;;;;;9.47;8.30;;;7.70;99.90;;;;;;5061989;28;20230;-61
2024/03/19 02:55:48;;;;;;;9.10;8.07;;;7.60;99.90;;;;;;5047712;28;20242;-61
2024/03/19 02:58:16;;;;;;;10.83;8.47;;;7.70;99.90;;;;;;5049167;28;20194;-61
2024/03/19 03:00:43;;;;;;;11.23;9.23;;;7.60;99.90;;;;;;5058411;28;20202;-61
2024/03/19 03:03:10;;;;;;;12.43;9.87;;;7.70;99.90;;;;;;5060115;28;20230;-61
2024/03/19 03:05:38;;;;;;;10.43;8.27;;;7.70;99.90;;;;;;5058786;28;20629;-61
2024/03/19 03:08:06;;;;;;;11.67;8.63;;;7.60;99.90;;;;;;5057463;28;20203;-61
2024/03/19 03:10:33;;;;;;;10.73;8.50;;;7.60;99.90;;;;;;5058204;28;20287;-61
2024/03/19 03:13:00;;;;;;;11.63;8.17;;;7.60;99.90;;;;;;5075947;22;20326;-70
2024/03/19 03:15:29;;;;;;;11.93;9.13;;;7.60;99.90;;;;;;5044198;28;20196;-70
2024/03/19 03:17:56;;;;;;;14.40;9.87;;;7.50;99.90;;;;;;5044498;28;20221;-70
2024/03/19 03:20:24;;;;;;;12.77;9.70;;;7.60;99.90;;;;;;5044085;28;20217;-70
2024/03/19 03:22:52;;;;;;;10.10;9.10;;;7.50;99.90;;;;;;5049385;28;20614;-70
2024/03/19 03:25:19;;;;;;;12.33;9.87;;;7.50;99.90;;;;;;5048751;28;20207;-70
2024/03/19 03:27:46;;;;;;;11.40;9.67;;;7.50;99.90;;;;;;5051368;28;20249;-70
2024/03/19 03:30:14;;;;;;;10.63;8.90;;;7.60;99.90;;;;;;5047309;28;20197;-70
2024/03/19 03:32:45;;;;;;;13.37;10.67;;;7.70;99.90;;;;;;5047165;28;21008;-70
2024/03/19 03:35:12;;;;;;;15.63;11.57;;;7.60;99.90;;;;;;5050085;28;20197;-70
2024/03/19 03:37:40;;;;;;;12.67;9.70;;;7.60;99.90;;;;;;5045845;28;20196;-70
2024/03/19 03:40:13;;;;;;;13.23;11.07;;;7.60;99.90;;;;;;5044244;28;20675;-70
2024/03/19 03:42:41;;;;;;;13.60;10.27;;;7.60;99.90;;;;;;5046116;28;20207;-70
2024/03/19 03:45:10;;;;;;;12.67;9.67;;;7.60;99.90;;;;;;5035786;28;20292;-70
2024/03/19 03:47:37;;;;;;;14.60;10.53;;;7.60;99.90;;;;;;5044770;28;20225;-70
2024/03/19 03:50:08;;;;;;;13.33;10.87;;;7.60;99.90;;;;;;5049390;28;20699;-70
2024/03/19 03:52:35;;;;;;;14.37;10.97;;;7.60;99.90;;;;;;5051693;28;20200;-70
2024/03/19 03:55:03;;;;;;;13.03;10.67;;;7.50;99.90;;;;;;5036910;28;20215;-70
2024/03/19 03:57:30;;;;;;;15.27;12.33;;;7.60;99.90;;;;;;5043873;28;20249;-69
2024/03/19 03:59:57;;;;;;;12.47;10.80;;;7.60;99.90;;;;;;5044008;28;20251;-69
2024/03/19 04:02:24;;;;;;;12.67;10.03;;;7.50;99.90;;;;;;5045074;28;20277;-70
2024/03/19 04:04:52;;;;;;;11.87;10.60;;;7.60;99.90;;;;;;5043850;28;20204;-70
2024/03/19 04:07:21;;;;;;;11.63;9.83;;;7.60;99.90;;;;;;5045222;28;20227;-69
2024/03/19 04:09:48;;;;;;;11.17;9.23;;;7.70;99.90;;;;;;5045825;28;20270;-70
2024/03/19 04:12:15;;;;;;;11.77;9.00;;;7.60;99.90;;;;;;5046008;28;20204;-70
2024/03/19 04:14:42;;;;;;;12.30;9.93;;;7.60;99.90;;;;;;5044897;28;20741;-70
2024/03/19 04:17:12;;;;;;;8.70;7.80;;;7.70;99.90;;;;;;5041713;28;20211;-70
2024/03/19 04:19:39;;;;;;;10.37;8.20;;;7.70;99.90;;;;;;5047724;28;20207;-70
2024/03/19 04:22:06;;;;;;;10.37;9.17;;;7.70;99.90;;;;;;5043883;28;20624;-70
2024/03/19 04:24:34;;;;;;;9.63;8.60;;;7.60;99.90;;;;;;5043119;28;20602;-70
2024/03/19 04:27:01;;;;;;;11.57;10.07;;;7.60;99.90;;;;;;5042770;28;20202;-70
2024/03/19 04:29:28;;;;;;;11.00;9.03;;;7.60;99.90;;;;;;5045164;28;20208;-70
2024/03/19 04:31:55;;;;;;;9.67;8.77;;;7.60;99.90;;;;;;5051964;28;20289;-70
2024/03/19 04:34:22;;;;;;;9.03;7.90;;;7.50;99.90;;;;;;5043110;28;20227;-70
2024/03/19 04:36:49;;;;;;;10.30;9.17;;;7.50;99.90;;;;;;5050286;28;20658;-70
2024/03/19 04:39:17;;;;;;;14.03;9.33;;;7.50;99.90;;;;;;5045231;28;20191;-70
2024/03/19 04:41:47;;;;;;;9.47;8.53;;;7.50;99.90;;;;;;5042137;28;20206;-70
2024/03/19 04:44:14;;;;;;;12.13;8.57;;;7.50;99.90;;;;;;5039269;28;20223;-70
2024/03/19 04:46:41;;;;;;;9.87;8.60;;;7.70;99.90;;;;;;5041364;28;20233;-70
2024/03/19 04:49:08;;;;;;;11.43;8.73;;;7.70;99.90;;;;;;5052203;28;20255;-70
2024/03/19 04:51:35;;;;;;;9.63;8.03;;;7.70;99.90;;;;;;5038367;28;20286;-70
2024/03/19 04:54:02;;;;;;;9.37;7.33;;;7.60;99.90;;;;;;5048969;28;20219;-70
2024/03/19 04:56:29;;;;;;;8.00;7.07;;;7.60;99.90;;;;;;5051228;28;20254;-70
2024/03/19 04:58:58;;;;;;;7.40;6.60;;;7.60;99.90;;;;;;5045886;28;20590;-70
2024/03/19 05:01:27;;;;;;;6.90;6.10;;;7.60;99.90;;;;;;5034813;28;20895;-70
2024/03/19 05:03:54;;;;;;;10.10;6.17;;;7.70;99.90;;;;;;5039443;28;20719;-70
2024/03/19 05:06:22;;;;;;;8.30;7.20;;;7.60;99.90;;;;;;5039747;28;20204;-70
2024/03/19 05:08:49;;;;;;;8.73;7.83;;;7.50;99.90;;;;;;5043375;28;20737;-70
2024/03/19 05:11:16;;;;;;;10.70;8.43;;;7.50;99.90;;;;;;5043816;28;20211;-70
2024/03/19 05:13:43;;;;;;;9.53;8.00;;;7.50;99.90;;;;;;5038897;28;20309;-70
2024/03/19 05:16:11;;;;;;;11.30;7.80;;;7.60;99.90;;;;;;5031820;28;20682;-70
2024/03/19 05:18:38;;;;;;;12.83;7.70;;;7.60;99.90;;;;;;5030516;28;20557;-70
2024/03/19 05:21:06;;;;;;;6.73;6.13;;;7.50;99.90;;;;;;5032577;28;20204;-70
2024/03/19 05:23:34;;;;;;;8.97;7.13;;;7.50;99.90;;;;;;5036741;28;20220;-70
2024/03/19 05:26:02;;;;;;;8.27;7.20;;;7.50;99.90;;;;;;5049221;28;20204;-70
2024/03/19 05:28:29;;;;;;;9.93;8.33;;;7.50;99.90;;;;;;5039940;28;20191;-70
2024/03/19 05:30:56;;;;;;;8.40;6.60;;;7.60;99.90;;;;;;5051886;28;20223;-70
2024/03/19 05:33:25;;;;;;;8.67;6.10;;;7.50;99.90;;;;;;5049377;28;20220;-70
2024/03/19 05:35:53;;;;;;;6.27;5.67;;;7.50;99.90;;;;;;5050730;28;20293;-70
2024/03/19 05:38:20;;;;;;;7.33;6.63;;;7.50;99.90;;;;;;5044430;28;20201;-70
2024/03/19 05:40:47;;;;;;;8.03;6.87;;;7.50;99.90;;;;;;5032205;28;20676;-70
2024/03/19 05:43:14;;;;;;;7.87;6.90;;;7.50;99.90;;;;;;5035611;28;20273;-70
2024/03/19 05:45:41;;;;;;;9.43;8.03;;;7.40;99.90;;;;;;5052242;28;20207;-70
2024/03/19 05:48:08;;;;;;;9.67;7.87;;;7.40;99.90;;;;;;5050435;28;20200;-70
2024/03/19 05:50:37;;;;;;;13.70;9.17;;;7.40;99.90;;;;;;5052018;28;20704;-70
2024/03/19 05:53:05;;;;;;;16.37;10.33;;;7.30;99.90;;;;;;5051696;28;20230;-70
2024/03/19 05:55:32;;;;;;;12.60;10.17;;;7.30;99.90;;;;;;5052075;28;20228;-70
2024/03/19 05:57:59;;;;;;;14.33;10.63;;;7.20;99.90;;;;;;5050981;28;20554;-70
2024/03/19 06:00:26;;;;;;;13.73;10.73;;;7.20;99.90;;;;;;5051371;28;20209;-70
2024/03/19 06:02:53;;;;;;;14.03;9.87;;;7.20;99.90;;;;;;5043505;28;20294;-70
2024/03/19 06:05:20;;;;;;;15.30;10.87;;;7.20;99.90;;;;;;5051608;28;20249;-70
2024/03/19 06:07:52;;;;;;;11.97;10.30;;;7.10;99.90;;;;;;5034803;28;20205;-70
2024/03/19 06:10:19;;;;;;;11.23;9.13;;;7.20;99.90;;;;;;5031910;28;20221;-70
2024/03/19 06:12:46;;;;;;;8.30;6.97;;;7.20;99.90;;;;;;5031640;28;20585;-70
2024/03/19 06:15:14;;;;;;;9.30;7.80;;;7.30;99.90;;;;;;5041216;28;20207;-71
2024/03/19 06:17:41;;;;;;;6.63;6.03;;;7.30;99.90;;;;;;5050751;28;20227;-70
2024/03/19 06:20:14;;;;;;;7.33;5.53;;;7.30;99.90;;;;;;5051107;28;20664;-70
2024/03/19 06:22:42;;;;;;;6.33;5.23;;;7.40;99.90;;;;;;5035837;28;20298;-70
2024/03/19 06:25:11;;;;;;;5.80;5.20;;;7.50;99.90;;;;;;5034064;28;20204;-70
2024/03/19 06:27:38;;;;;;;6.20;5.60;;;7.60;99.90;;;;;;5044998;28;20246;-70
2024/03/19 06:30:06;;;;;;;7.93;4.73;;;7.70;99.90;;;;;;5039723;28;20767;-70
2024/03/19 06:32:35;;;;;;;8.23;5.40;;;7.80;99.90;;;;;;5049028;28;20197;-70
2024/03/19 06:35:04;;;;;;;4.63;4.23;;;7.80;99.90;;;;;;5045898;28;20241;-70
2024/03/19 06:37:31;;;;;;;6.00;5.10;;;7.90;99.90;;;;;;5050223;28;20231;-70
2024/03/19 06:39:58;;;;;;;5.67;5.17;;;8.40;99.90;;;;;;5050868;28;20668;-70
2024/03/19 06:42:26;;;;;;;4.80;4.40;;;8.80;99.90;;;;;;5050998;28;20201;-70
2024/03/19 06:44:53;;;;;;;4.07;3.77;;;9.60;99.90;;;;;;5050744;28;20207;-70
2024/03/19 06:47:21;;;;;;;4.67;4.33;;;10.50;99.90;;;;;;5049759;28;20203;-70
2024/03/19 06:49:48;;;;;;;4.43;4.03;;;11.10;99.90;;;;;;5050878;28;20220;-70
2024/03/19 06:52:16;;;;;;;4.13;3.67;;;11.60;99.90;;;;;;5051091;28;20277;-71
2024/03/19 06:54:44;;;;;;;4.03;3.63;;;12.10;99.90;;;;;;5050522;28;20723;-70
2024/03/19 06:57:10;;;;;;;4.97;3.27;;;12.40;99.90;;;;;;5050022;28;20201;-70
2024/03/19 06:59:39;;;;;;;3.77;3.57;;;12.40;99.90;;;;;;5042425;28;20198;-70
2024/03/19 07:02:07;;;;;;;3.20;3.00;;;12.40;99.90;;;;;;5050796;28;20262;-70
2024/03/19 07:04:35;;;;;;;2.83;2.57;;;12.60;99.90;;;;;;5050031;28;20224;-70
2024/03/19 07:07:03;;;;;;;2.50;2.40;;;12.50;99.90;;;;;;5046439;28;20209;-70
2024/03/19 07:09:31;;;;;;;4.27;4.03;;;12.50;99.90;;;;;;5044447;28;20251;-70
2024/03/19 07:11:58;;;;;;;5.27;4.13;;;12.20;99.90;;;;;;5049713;28;20212;-70
2024/03/19 07:14:25;;;;;;;3.40;2.77;;;12.00;99.90;;;;;;5035776;28;20251;-70
2024/03/19 07:16:54;;;;;;;2.37;2.20;;;11.90;99.90;;;;;;5044706;28;20204;-69
2024/03/19 07:19:21;;;;;;;2.60;2.20;;;11.90;99.90;;;;;;5047125;28;20199;-70
2024/03/19 07:21:48;;;;;;;1.80;1.70;;;12.10;99.90;;;;;;5050718;28;20679;-70
2024/03/19 07:24:16;;;;;;;1.70;1.60;;;12.10;99.90;;;;;;5045495;28;20331;-70
2024/03/19 07:26:43;;;;;;;1.80;1.70;;;12.10;99.90;;;;;;5043756;28;20532;-71
2024/03/19 07:29:10;;;;;;;1.90;1.80;;;12.10;99.90;;;;;;5049599;28;20210;-71
2024/03/19 07:31:40;;;;;;;1.53;1.53;;;12.10;99.90;;;;;;5047001;28;20315;-71
2024/03/19 07:34:08;;;;;;;1.40;1.40;;;11.90;99.90;;;;;;5047242;28;20229;-71
2024/03/19 07:36:36;;;;;;;1.90;1.47;;;12.20;99.90;;;;;;5049128;28;20196;-71
2024/03/19 07:39:04;;;;;;;1.30;1.30;;;12.10;99.90;;;;;;5049537;28;20201;-71
2024/03/19 07:41:31;;;;;;;2.30;1.80;;;12.30;99.90;;;;;;5037233;28;20236;-72
2024/03/19 07:43:58;;;;;;;1.60;1.50;;;12.50;99.90;;;;;;5049451;28;20309;-71
2024/03/19 07:46:26;;;;;;;1.40;1.40;;;;;;;;;;5045083;28;20197;-71
2024/03/19 07:48:53;;;;;;;1.60;1.53;;;;;;;;;;5041394;28;20689;-71
2024/03/19 07:51:22;;;;;;;1.47;1.47;;;;;;;;;;5041746;28;20224;-69
2024/03/19 07:53:50;;;;;;;2.07;1.67;;;;;;;;;;5045782;28;20213;-69
2024/03/19 07:56:17;;;;;;;1.47;1.47;;;;;;;;;;5043260;28;20696;-69
2024/03/19 07:58:44;;;;;;;1.40;1.37;;;;;;;;;;5042190;28;20239;-69
2024/03/19 08:01:12;;;;;;;1.10;1.10;;;;;;;;;;5048080;28;20249;-69
2024/03/19 08:03:40;;;;;;;1.00;1.00;;;;;;;;;;5050195;28;20324;-69
2024/03/19 08:06:07;;;;;;;1.90;0.90;;;;;;;;;;5047881;28;20212;-69
2024/03/19 08:08:36;;;;;;;1.20;1.10;;;;;;;;;;5046693;28;20201;-69
2024/03/19 08:11:04;;;;;;;0.70;0.70;;;;;;;;;;5047525;28;20629;-70
2024/03/19 08:13:31;;;;;;;2.53;0.90;;;;;;;;;;5044740;28;20237;-69
2024/03/19 08:15:59;;;;;;;1.10;0.60;;;;;;;;;;5049385;28;20263;-69
2024/03/19 08:18:26;;;;;;;0.63;0.63;;;;;;;;;;5046353;28;20203;-70
2024/03/19 08:20:53;;;;;;;0.40;0.40;;;;;;;;;;5050283;28;20205;-69
2024/03/19 08:23:20;;;;;;;0.40;0.40;;;;;;;;;;5051179;28;20220;-69
2024/03/19 08:25:49;;;;;;;0.70;0.70;;;;;;;;;;5047342;28;20481;-68
2024/03/19 08:28:17;;;;;;;0.97;0.50;;;;;;;;;;5047694;28;20197;-69
2024/03/19 08:30:45;;;;;;;0.53;0.53;;;16.20;99.90;;;;;;5044316;28;20222;-68
2024/03/19 08:33:12;;;;;;;0.50;0.47;;;16.50;99.90;;;;;;5044376;28;20588;-69
2024/03/19 08:35:39;;;;;;;0.50;0.50;;;17.00;99.90;;;;;;5037506;28;20217;-69
2024/03/19 08:38:07;;;;;;;0.43;0.43;;;17.80;99.90;;;;;;5040806;28;20201;-70
2024/03/19 08:40:34;;;;;;;0.50;0.50;;;18.50;99.90;;;;;;5047010;28;20194;-69
2024/03/19 08:43:04;;;;;;;0.67;0.40;;;18.80;99.90;;;;;;5045848;28;20721;-70
2024/03/19 08:45:31;;;;;;;0.50;0.50;;;18.90;99.90;;;;;;5048828;28;20203;-69
2024/03/19 08:47:58;;;;;;;1.23;0.70;;;19.00;99.90;;;;;;5043021;28;20221;-67
2024/03/19 08:50:26;;;;;;;0.40;0.40;;;;;;;;;;5048869;28;20585;-69
2024/03/19 08:52:53;;;;;;;0.40;0.40;;;;;;;;;;5041970;28;20325;-69
2024/03/19 08:55:20;;;;;;;2.20;0.57;;;;;;;;;;5045436;28;20208;-67
2024/03/19 08:57:48;;;;;;;0.40;0.40;;;;;;;;;;5039006;28;20314;-64
2024/03/19 09:00:17;;;;;;;0.50;0.50;;;;;;;;;;5050424;28;20205;-68
2024/03/19 09:02:46;;;;;;;0.70;0.70;;;;;;;;;;5037910;28;20297;-67
2024/03/19 09:05:14;;;;;;;0.60;0.60;;;;;;;;;;5039313;28;20198;-70
2024/03/19 09:07:41;;;;;;;1.73;0.57;;;;;;;;;;5047414;28;20645;-63
2024/03/19 09:10:09;;;;;;;0.40;0.40;;;;;;;;;;5050190;28;20198;-67
2024/03/19 09:12:36;;;;;;;0.70;0.70;;;;;;;;;;5036553;28;20202;-68
2024/03/19 09:15:05;;;;;;;0.30;0.30;;;;;;;;;;5030934;28;20229;-68
2024/03/19 09:17:34;;;;;;;0.30;0.30;;;;;;;;;;5033535;28;20199;-68
2024/03/19 09:20:05;;;;;;;0.60;0.40;;;;;;;;;;5033237;28;20214;-67
2024/03/19 09:22:32;;;;;;;0.40;0.40;;;;;;;;;;5050794;28;20661;-68
2024/03/19 09:25:00;;;;;;;0.20;0.20;;;;;;;;;;5049181;28;20210;-66
2024/03/19 09:27:27;;;;;;;0.30;0.30;;;;;;;;;;5047270;28;20229;-66
2024/03/19 09:29:54;;;;;;;0.30;0.30;;;21.60;99.90;;;;;;5032236;28;20292;-67
2024/03/19 09:32:22;;;;;;;0.30;0.30;;;21.30;99.90;;;;;;5043223;28;20210;-66
2024/03/19 09:34:50;;;;;;;0.30;0.30;;;21.60;99.90;;;;;;5034661;28;20203;-66
2024/03/19 09:37:17;;;;;;;0.67;0.57;;;21.30;99.90;;;;;;5041665;28;20198;-64
2024/03/19 09:39:44;;;;;;;0.87;0.40;;;21.30;99.90;;;;;;5035808;28;20256;-64
2024/03/19 09:42:16;;;;;;;0.50;0.50;;;21.10;99.90;;;;;;5031089;28;20576;-64
2024/03/19 09:44:43;;;;;;;0.67;0.50;;;21.30;99.90;;;;;;5040701;28;20296;-64
2024/03/19 09:47:12;;;;;;;0.80;0.80;;;21.60;99.90;;;;;;5042552;28;20290;-65
2024/03/19 09:49:39;;;;;;;0.50;0.50;;;21.70;99.90;;;;;;5049883;28;20243;-65
2024/03/19 09:52:07;;;;;;;0.40;0.40;;;22.10;99.90;;;;;;5048793;28;20713;-65
2024/03/19 09:54:35;;;;;;;0.50;0.50;;;21.30;99.90;;;;;;5031903;28;20756;-65
2024/03/19 09:57:04;;;;;;;3.47;3.27;;;21.40;99.90;;;;;;5039468;28;20557;-65
2024/03/19 09:59:32;;;;;;;3.80;3.60;;;21.30;99.90;;;;;;5031916;28;20217;-65
2024/03/19 10:01:59;;;;;;;5.50;5.17;;;21.70;99.90;;;;;;5040915;28;20206;-65
2024/03/19 10:04:27;;;;;;;4.47;4.27;;;;;;;;;;5039060;28;20226;-65
2024/03/19 10:06:54;;;;;;;4.97;4.70;;;21.40;99.90;;;;;;5031136;28;20618;-65
2024/03/19 10:09:30;;;;;;;4.97;4.73;;;21.30;99.90;;;;;;5032751;28;20209;-64
2024/03/19 10:11:57;;;;;;;5.47;5.17;;;21.20;99.90;;;;;;5032406;28;20280;-65
2024/03/19 10:14:24;;;;;;;4.60;4.40;;;21.30;99.90;;;;;;5031520;28;20226;-64
2024/03/19 10:16:51;;;;;;;4.47;4.17;;;21.00;99.90;;;;;;5042862;28;20244;-65
2024/03/19 10:19:19;;;;;;;5.67;5.33;;;21.40;99.90;;;;;;5040277;28;20198;-65
2024/03/19 10:21:46;;;;;;;5.17;4.80;;;21.10;99.90;;;;;;5030910;28;20198;-65
2024/03/19 10:24:14;;;;;;;5.37;5.03;;;21.40;99.90;;;;;;5031802;28;20268;-63
2024/03/19 10:26:44;;;;;;;6.30;5.80;;;20.60;99.90;;;;;;5036465;28;20623;-64
2024/03/19 10:29:13;;;;;;;6.53;6.10;;;20.90;99.90;;;;;;5040871;28;20206;-64
2024/03/19 10:31:40;;;;;;;5.30;4.90;;;20.50;99.90;;;;;;5039710;28;20303;-64
2024/03/19 10:34:17;;;;;;;4.83;4.63;;;19.70;99.90;;;;;;5031290;28;20877;-64
2024/03/19 10:36:48;;;;;;;4.50;4.30;;;20.00;99.90;;;;;;5044448;28;20236;-64
2024/03/19 10:39:16;;;;;;;4.83;4.53;;;20.70;99.90;;;;;;5049624;28;20281;-65
2024/03/19 10:41:46;;;;;;;5.30;4.80;;;21.30;99.90;;;;;;5031476;28;20278;-65
2024/03/19 10:44:17;;;;;;;4.83;4.43;;;21.40;99.90;;;;;;5032141;28;21057;-65
2024/03/19 10:46:44;;;;;;;4.53;4.30;;;21.10;99.90;;;;;;5041343;28;20285;-64
2024/03/19 10:49:16;;;;;;;4.50;4.17;;;21.40;99.90;;;;;;5049944;28;20255;-64
2024/03/19 10:51:44;;;;;;;4.50;4.30;;;21.10;99.90;;;;;;5035645;28;20218;-65
2024/03/19 10:54:13;;;;;;;4.20;4.00;;;20.90;99.90;;;;;;5043992;28;20271;-65
2024/03/19 10:56:40;;;;;;;6.73;6.23;;;20.60;99.90;;;;;;5048710;28;20252;-64
2024/03/19 10:59:12;;;;;;;4.73;4.33;;;19.80;99.90;;;;;;5049149;28;20649;-65
2024/03/19 11:01:46;;;;;;;4.67;4.47;;;19.60;99.90;;;;;;5051185;28;20194;-64
2024/03/19 11:04:14;;;;;;;4.77;4.47;;;19.30;99.90;;;;;;5050873;28;20221;-64
2024/03/19 11:06:42;;;;;;;4.57;4.37;;;19.10;99.90;;;;;;5049826;28;20289;-65
2024/03/19 11:09:19;;;;;;;3.80;3.60;;;18.70;99.90;;;;;;5036882;28;20673;-64
2024/03/19 11:11:50;;;;;;;4.87;4.57;;;18.70;99.90;;;;;;5045744;28;20326;-64
2024/03/19 11:14:20;;;;;;;5.00;4.70;;;18.00;99.90;;;;;;5046350;28;20226;-64
2024/03/19 11:16:47;;;;;;;6.13;5.70;;;17.90;99.90;;;;;;5030402;28;20194;-64
2024/03/19 11:19:19;;;;;;;6.20;5.67;;;17.50;99.90;;;;;;5030839;28;20211;-64
2024/03/19 11:21:46;;;;;;;6.40;5.90;;;17.50;99.90;;;;;;5036321;28;20194;-64
2024/03/19 11:24:36;;;;;;;6.17;5.77;;;17.00;99.90;;;;;;5036255;28;20241;-64
2024/03/19 11:27:05;;;;;;;5.50;5.13;;;16.20;99.90;;;;;;5033441;28;20198;-65
2024/03/19 11:29:37;;;;;;;6.37;5.77;;;16.10;99.90;;;;;;5040809;28;20194;-64
2024/03/19 11:32:06;;;;;;;6.70;6.20;;;15.90;99.90;;;;;;5039241;28;20835;-65
2024/03/19 11:34:33;;;;;;;6.13;5.73;;;16.00;99.90;;;;;;5041138;28;20289;-64
2024/03/19 11:37:00;;;;;;;6.90;6.20;;;16.00;99.90;;;;;;5047431;28;20642;-64
2024/03/19 11:39:27;;;;;;;7.43;6.83;;;15.60;99.90;;;;;;5047898;28;20203;-64
2024/03/19 11:41:56;;;;;;;6.37;5.90;;;15.50;99.90;;;;;;5044472;28;20191;-64
2024/03/19 11:44:25;;;;;;;6.43;5.93;;;15.60;99.90;;;;;;5045671;28;20264;-64
2024/03/19 11:46:54;;;;;;;5.93;5.53;;;15.70;99.90;;;;;;5041633;28;20198;-64
2024/03/19 11:49:26;;;;;;;6.00;5.60;;;15.90;99.90;;;;;;5039123;28;20261;-65
2024/03/19 11:51:58;;;;;;;4.47;4.27;;;16.10;99.90;;;;;;5043803;28;20226;-65
2024/03/19 11:54:25;;;;;;;5.40;5.10;;;16.30;99.90;;;;;;5042923;28;20229;-64
2024/03/19 11:56:54;;;;;;;4.97;4.63;;;16.10;99.90;;;;;;5047660;28;20203;-65
2024/03/19 11:59:23;;;;;;;4.67;4.37;;;16.20;99.90;;;;;;5052100;28;20197;-64
2024/03/19 12:01:52;;;;;;;4.97;4.67;;;16.00;99.90;;;;;;5043816;28;20263;-65
2024/03/19 12:04:20;;;;;;;4.60;4.40;;;16.10;99.90;;;;;;5050001;28;20217;-63
2024/03/19 12:06:48;;;;;;;3.60;3.30;;;16.10;99.90;;;;;;5052952;28;20201;-64
2024/03/19 12:09:16;;;;;;;3.87;3.60;;;15.90;99.90;;;;;;5052372;28;20212;-64
2024/03/19 12:11:44;;;;;;;3.60;3.50;;;16.00;99.90;;;;;;5044623;28;20604;-64
2024/03/19 12:14:15;;;;;;;3.60;3.30;;;16.00;99.90;;;;;;5050376;28;20671;-64
2024/03/19 12:16:43;;;;;;;2.90;2.60;;;15.90;99.90;;;;;;5046839;28;20201;-64
2024/03/19 12:19:12;;;;;;;2.70;2.60;;;16.10;99.90;;;;;;5051613;28;20681;-64
2024/03/19 12:21:43;;;;;;;2.70;2.50;;;16.10;99.90;;;;;;5053509;28;20220;-70
2024/03/19 12:24:11;;;;;;;2.38;2.28;;;16.00;99.90;;;;;;5036840;28;20449;-66
2024/03/19 12:26:40;;;;;;;2.03;1.93;;;16.10;99.90;;;;;;5043086;28;20280;-69
2024/03/19 12:29:07;;;;;;;1.70;1.60;;;16.20;99.90;;;;;;5051387;28;20206;-67
2024/03/19 12:31:37;;;;;;;2.70;1.77;;;16.50;99.90;;;;;;5053027;28;20309;-68
2024/03/19 12:34:16;;;;;;;1.83;1.73;;;16.20;99.90;;;;;;5050802;28;20221;-68
2024/03/19 12:36:45;;;;;;;3.73;1.97;;;16.20;99.90;;;;;;5032375;28;20249;-67
2024/03/19 12:39:13;;;;;;;2.77;1.60;;;16.20;99.90;;;;;;5048687;28;20201;-67
2024/03/19 12:41:40;;;;;;;2.10;2.00;;;16.30;99.90;;;;;;5053146;28;20225;-65
2024/03/19 12:44:09;;;;;;;2.40;2.30;;;16.40;99.90;;;;;;5047249;28;20249;-64
2024/03/19 12:46:36;;;;;;;1.03;1.03;;;16.40;99.90;;;;;;5048185;28;20201;-67
2024/03/19 12:49:06;;;;;;;1.50;1.40;;;16.50;99.90;;;;;;5050183;28;20689;-65
2024/03/19 12:51:33;;;;;;;1.87;1.53;;;16.80;99.90;;;;;;5046206;28;20671;-65
2024/03/19 12:54:01;;;;;;;1.57;1.57;;;16.70;99.90;;;;;;5047086;28;20741;-65
2024/03/19 12:56:30;;;;;;;1.30;1.30;;;16.60;99.90;;;;;;5050474;28;20205;-65
2024/03/19 12:58:59;;;;;;;1.40;1.40;;;16.70;99.90;;;;;;5037533;28;20306;-66
2024/03/19 13:01:26;;;;;;;2.10;2.00;;;16.90;99.90;;;;;;5042773;28;20210;-66
2024/03/19 13:03:53;;;;;;;1.47;1.47;;;16.50;99.90;;;;;;5043571;28;20254;-65